createdAt,value
2023-03-30T00:00:17.837Z,999.51
2023-03-30T00:01:17.856Z,999.50
2023-03-30T00:02:17.759Z,999.48
2023-03-30T00:03:17.909Z,999.48
2023-03-30T00:04:18.030Z,999.44
2023-03-30T00:05:17.813Z,999.38
2023-03-30T00:06:17.708Z,999.38
2023-03-30T00:07:17.708Z,999.39
2023-03-30T00:08:17.671Z,999.37
2023-03-30T00:09:17.675Z,999.30
2023-03-30T00:10:17.676Z,999.31
2023-03-30T00:11:17.688Z,999.32
2023-03-30T00:12:17.634Z,999.33
2023-03-30T00:13:17.687Z,999.30
2023-03-30T00:14:17.621Z,999.32
2023-03-30T00:15:17.590Z,999.36
2023-03-30T00:16:17.644Z,999.34
2023-03-30T00:17:17.660Z,999.34
2023-03-30T00:18:17.618Z,999.33
2023-03-30T00:19:17.559Z,999.31
2023-03-30T00:20:17.633Z,999.34
2023-03-30T00:21:17.535Z,999.23
2023-03-30T00:22:17.511Z,999.18
2023-03-30T00:23:17.648Z,999.18
2023-03-30T00:24:17.525Z,999.17
2023-03-30T00:25:17.496Z,999.10
2023-03-30T00:26:17.516Z,999.11
2023-03-30T00:27:17.455Z,999.13
2023-03-30T00:28:17.487Z,999.11
2023-03-30T00:29:17.434Z,999.13
2023-03-30T00:30:17.470Z,999.10
2023-03-30T00:31:17.485Z,999.10
2023-03-30T00:32:17.418Z,999.09
2023-03-30T00:33:17.424Z,999.15
2023-03-30T00:34:17.456Z,999.11
2023-03-30T00:35:17.381Z,999.12
2023-03-30T00:36:17.438Z,999.13
2023-03-30T00:37:17.376Z,999.05
2023-03-30T00:38:17.319Z,999.05
2023-03-30T00:39:17.352Z,999.07
2023-03-30T00:40:17.355Z,999.07
2023-03-30T00:41:17.311Z,999.02
2023-03-30T00:42:17.367Z,999.00
2023-03-30T00:43:17.287Z,998.91
2023-03-30T00:44:17.261Z,998.89
2023-03-30T00:45:17.302Z,998.90
2023-03-30T00:46:17.289Z,998.90
2023-03-30T00:47:17.249Z,998.90
2023-03-30T00:48:17.225Z,998.94
2023-03-30T00:49:17.191Z,998.96
2023-03-30T00:50:17.226Z,998.97
2023-03-30T00:51:17.236Z,998.96
2023-03-30T00:52:17.196Z,998.96
2023-03-30T00:53:17.213Z,998.97
2023-03-30T00:54:17.188Z,998.98
2023-03-30T00:55:17.140Z,998.92
2023-03-30T00:56:17.145Z,998.92
2023-03-30T00:57:17.143Z,998.97
2023-03-30T00:58:17.109Z,999.00
2023-03-30T00:59:17.147Z,998.93
2023-03-30T01:00:17.098Z,998.91
2023-03-30T01:01:17.120Z,998.94
2023-03-30T01:02:17.072Z,998.85
2023-03-30T01:03:17.117Z,998.82
2023-03-30T01:04:17.024Z,998.80
2023-03-30T01:05:17.020Z,998.81
2023-03-30T01:06:17.034Z,998.74
2023-03-30T01:07:17.015Z,998.74
2023-03-30T01:08:17.003Z,998.70
2023-03-30T01:09:17.000Z,998.71
2023-03-30T01:10:16.964Z,998.62
2023-03-30T01:11:17.028Z,998.52
2023-03-30T01:12:16.987Z,998.40
2023-03-30T01:13:16.982Z,998.16
2023-03-30T01:14:16.938Z,998.02
2023-03-30T01:15:16.921Z,998.13
2023-03-30T01:16:16.974Z,998.36
2023-03-30T01:17:16.890Z,998.42
2023-03-30T01:18:16.901Z,998.47
2023-03-30T01:19:16.896Z,998.39
2023-03-30T01:20:16.919Z,998.34
2023-03-30T01:21:16.866Z,998.32
2023-03-30T01:22:16.849Z,998.34
2023-03-30T01:23:16.819Z,998.34
2023-03-30T01:24:16.814Z,998.35
2023-03-30T01:25:16.821Z,998.32
2023-03-30T01:26:16.790Z,998.27
2023-03-30T01:27:17.176Z,998.24
2023-03-30T01:28:16.774Z,998.22
2023-03-30T01:29:16.803Z,998.27
2023-03-30T01:30:16.801Z,998.27
2023-03-30T01:31:16.793Z,998.27
2023-03-30T01:32:16.714Z,998.33
2023-03-30T01:33:16.717Z,998.32
2023-03-30T01:34:16.702Z,998.22
2023-03-30T01:35:16.757Z,998.24
2023-03-30T01:36:16.755Z,998.22
2023-03-30T01:37:16.665Z,998.19
2023-03-30T01:38:16.676Z,998.23
2023-03-30T01:39:16.679Z,998.20
2023-03-30T01:40:16.641Z,998.21
2023-03-30T01:41:16.603Z,998.22
2023-03-30T01:42:16.625Z,998.29
2023-03-30T01:43:16.641Z,998.33
2023-03-30T01:44:16.617Z,998.34
2023-03-30T01:45:16.582Z,998.29
2023-03-30T01:46:16.644Z,998.32
2023-03-30T01:47:16.542Z,998.34
2023-03-30T01:48:16.532Z,998.30
2023-03-30T01:49:16.532Z,998.30
2023-03-30T01:50:16.594Z,998.28
2023-03-30T01:51:16.533Z,998.34
2023-03-30T01:52:16.523Z,998.34
2023-03-30T01:53:16.481Z,998.31
2023-03-30T01:54:16.515Z,998.33
2023-03-30T01:55:16.521Z,998.34
2023-03-30T01:56:16.464Z,998.27
2023-03-30T01:57:16.469Z,998.26
2023-03-30T01:58:16.436Z,998.25
2023-03-30T01:59:16.492Z,998.24
2023-03-30T02:00:16.439Z,998.15
2023-03-30T02:01:16.427Z,998.13
2023-03-30T02:02:16.424Z,998.12
2023-03-30T02:03:16.455Z,998.15
2023-03-30T02:04:16.486Z,998.14
2023-03-30T02:05:16.374Z,998.12
2023-03-30T02:06:16.353Z,998.16
2023-03-30T02:07:16.318Z,998.18
2023-03-30T02:08:16.383Z,998.15
2023-03-30T02:09:16.359Z,998.14
2023-03-30T02:10:16.307Z,998.09
2023-03-30T02:11:16.298Z,998.05
2023-03-30T02:12:16.356Z,998.02
2023-03-30T02:13:16.272Z,997.97
2023-03-30T02:14:16.281Z,997.91
2023-03-30T02:15:16.242Z,997.87
2023-03-30T02:16:16.237Z,997.83
2023-03-30T02:17:16.230Z,997.86
2023-03-30T02:18:16.218Z,997.84
2023-03-30T02:19:16.254Z,997.89
2023-03-30T02:20:16.222Z,997.83
2023-03-30T02:21:16.208Z,997.83
2023-03-30T02:22:16.177Z,997.81
2023-03-30T02:23:16.159Z,997.83
2023-03-30T02:24:16.158Z,997.85
2023-03-30T02:25:16.127Z,997.81
2023-03-30T02:26:16.139Z,997.88
2023-03-30T02:27:16.174Z,997.95
2023-03-30T02:28:16.085Z,998.03
2023-03-30T02:29:16.124Z,997.99
2023-03-30T02:30:16.089Z,997.96
2023-03-30T02:31:16.073Z,998.01
2023-03-30T02:32:16.096Z,998.02
2023-03-30T02:33:16.076Z,998.03
2023-03-30T02:34:16.034Z,998.04
2023-03-30T02:35:16.051Z,998.00
2023-03-30T02:36:16.037Z,997.98
2023-03-30T02:37:16.007Z,998.00
2023-03-30T02:38:15.982Z,997.99
2023-03-30T02:39:16.009Z,997.93
2023-03-30T02:40:15.947Z,997.94
2023-03-30T02:41:15.957Z,997.93
2023-03-30T02:42:15.910Z,997.91
2023-03-30T02:43:15.944Z,997.88
2023-03-30T02:44:15.958Z,997.89
2023-03-30T02:45:15.930Z,997.92
2023-03-30T02:46:15.917Z,997.91
2023-03-30T02:47:15.859Z,997.93
2023-03-30T02:48:15.872Z,997.90
2023-03-30T02:49:15.933Z,997.80
2023-03-30T02:50:15.834Z,997.86
2023-03-30T02:51:15.849Z,997.77
2023-03-30T02:52:15.821Z,997.80
2023-03-30T02:53:15.807Z,997.80
2023-03-30T02:54:15.822Z,997.73
2023-03-30T02:55:15.810Z,997.82
2023-03-30T02:56:15.742Z,997.65
2023-03-30T02:57:15.809Z,997.67
2023-03-30T02:58:16.696Z,997.68
2023-03-30T02:59:15.749Z,997.69
2023-03-30T03:00:15.715Z,997.69
2023-03-30T03:01:15.737Z,997.64
2023-03-30T03:02:15.732Z,997.64
2023-03-30T03:03:15.812Z,997.64
2023-03-30T03:04:15.723Z,997.61
2023-03-30T03:05:15.721Z,997.62
2023-03-30T03:06:15.647Z,997.63
2023-03-30T03:07:15.651Z,997.62
2023-03-30T03:08:15.625Z,997.61
2023-03-30T03:09:15.629Z,997.61
2023-03-30T03:10:15.620Z,997.67
2023-03-30T03:11:15.622Z,997.64
2023-03-30T03:12:15.590Z,997.54
2023-03-30T03:13:15.603Z,997.55
2023-03-30T03:14:15.641Z,997.55
2023-03-30T03:15:15.570Z,997.53
2023-03-30T03:16:15.558Z,997.60
2023-03-30T03:17:15.704Z,997.56
2023-03-30T03:18:15.496Z,997.58
2023-03-30T03:19:15.535Z,997.62
2023-03-30T03:20:15.484Z,997.65
2023-03-30T03:21:15.484Z,997.62
2023-03-30T03:22:15.465Z,997.56
2023-03-30T03:23:15.465Z,997.59
2023-03-30T03:24:15.457Z,997.49
2023-03-30T03:25:15.513Z,997.54
2023-03-30T03:26:15.444Z,997.49
2023-03-30T03:27:15.406Z,997.46
2023-03-30T03:28:15.379Z,997.51
2023-03-30T03:29:15.407Z,997.46
2023-03-30T03:30:15.371Z,997.41
2023-03-30T03:31:15.426Z,997.38
2023-03-30T03:32:15.339Z,997.44
2023-03-30T03:33:15.331Z,997.43
2023-03-30T03:34:15.329Z,997.41
2023-03-30T03:35:15.319Z,997.37
2023-03-30T03:36:15.315Z,997.37
2023-03-30T03:37:15.280Z,997.39
2023-03-30T03:38:15.261Z,997.36
2023-03-30T03:39:15.280Z,997.34
2023-03-30T03:40:15.248Z,997.29
2023-03-30T03:41:15.235Z,997.36
2023-03-30T03:42:15.222Z,997.34
2023-03-30T03:43:15.208Z,997.34
2023-03-30T03:44:15.220Z,997.25
2023-03-30T03:45:15.199Z,997.27
2023-03-30T03:46:15.244Z,997.35
2023-03-30T03:47:16.560Z,997.35
2023-03-30T03:48:15.163Z,997.37
2023-03-30T03:49:15.168Z,997.45
2023-03-30T03:50:15.139Z,997.41
2023-03-30T03:51:15.126Z,997.38
2023-03-30T03:52:15.112Z,997.37
2023-03-30T03:53:15.101Z,997.37
2023-03-30T03:54:15.107Z,997.31
2023-03-30T03:55:15.103Z,997.34
2023-03-30T03:56:15.071Z,997.35
2023-03-30T03:57:15.196Z,997.36
2023-03-30T03:58:15.049Z,997.37
2023-03-30T03:59:15.045Z,997.38
2023-03-30T04:00:15.033Z,997.43
2023-03-30T04:01:15.426Z,997.45
2023-03-30T04:02:15.036Z,997.48
2023-03-30T04:03:15.030Z,997.49
2023-03-30T04:04:15.020Z,997.50
2023-03-30T04:05:14.961Z,997.54
2023-03-30T04:06:14.964Z,997.55
2023-03-30T04:07:14.937Z,997.52
2023-03-30T04:08:14.927Z,997.49
2023-03-30T04:09:14.933Z,997.49
2023-03-30T04:10:14.894Z,997.45
2023-03-30T04:11:14.905Z,997.44
2023-03-30T04:12:14.895Z,997.48
2023-03-30T04:13:14.878Z,997.46
2023-03-30T04:14:14.883Z,997.50
2023-03-30T04:15:14.860Z,997.51
2023-03-30T04:16:14.903Z,997.45
2023-03-30T04:17:14.875Z,997.47
2023-03-30T04:18:14.842Z,997.45
2023-03-30T04:19:14.829Z,997.46
2023-03-30T04:20:14.784Z,997.48
2023-03-30T04:21:14.774Z,997.41
2023-03-30T04:22:14.796Z,997.44
2023-03-30T04:23:14.755Z,997.42
2023-03-30T04:24:14.752Z,997.37
2023-03-30T04:25:14.732Z,997.33
2023-03-30T04:26:14.715Z,997.35
2023-03-30T04:27:14.712Z,997.33
2023-03-30T04:28:14.721Z,997.31
2023-03-30T04:29:14.683Z,997.25
2023-03-30T04:30:14.675Z,997.24
2023-03-30T04:31:14.789Z,997.24
2023-03-30T04:32:14.706Z,997.23
2023-03-30T04:33:14.672Z,997.26
2023-03-30T04:34:14.646Z,997.30
2023-03-30T04:35:14.619Z,997.29
2023-03-30T04:36:14.638Z,997.29
2023-03-30T04:37:14.605Z,997.24
2023-03-30T04:38:14.577Z,997.27
2023-03-30T04:39:14.587Z,997.19
2023-03-30T04:40:14.569Z,997.20
2023-03-30T04:41:14.552Z,997.21
2023-03-30T04:42:14.533Z,997.20
2023-03-30T04:43:14.611Z,997.19
2023-03-30T04:44:14.518Z,997.14
2023-03-30T04:45:14.552Z,997.12
2023-03-30T04:46:14.558Z,997.08
2023-03-30T04:47:14.489Z,997.09
2023-03-30T04:48:14.481Z,997.06
2023-03-30T04:49:14.464Z,997.06
2023-03-30T04:50:14.474Z,996.97
2023-03-30T04:51:14.444Z,996.97
2023-03-30T04:52:14.421Z,996.98
2023-03-30T04:53:14.436Z,997.02
2023-03-30T04:54:14.403Z,996.99
2023-03-30T04:55:14.436Z,996.99
2023-03-30T04:56:14.375Z,996.97
2023-03-30T04:57:14.389Z,996.94
2023-03-30T04:58:14.377Z,996.97
2023-03-30T04:59:14.351Z,996.99
2023-03-30T05:00:14.352Z,996.93
2023-03-30T05:01:14.422Z,996.95
2023-03-30T05:02:14.349Z,997.00
2023-03-30T05:03:14.392Z,996.97
2023-03-30T05:04:14.305Z,996.93
2023-03-30T05:05:14.279Z,996.96
2023-03-30T05:06:14.257Z,996.96
2023-03-30T05:07:14.249Z,997.02
2023-03-30T05:08:14.256Z,997.01
2023-03-30T05:09:14.271Z,997.01
2023-03-30T05:10:14.225Z,996.93
2023-03-30T05:11:14.204Z,996.95
2023-03-30T05:12:14.216Z,996.90
2023-03-30T05:13:14.181Z,996.91
2023-03-30T05:14:14.194Z,996.91
2023-03-30T05:15:14.173Z,996.85
2023-03-30T05:16:14.178Z,996.83
2023-03-30T05:17:14.183Z,996.81
2023-03-30T05:18:14.172Z,996.76
2023-03-30T05:19:14.133Z,996.78
2023-03-30T05:20:14.114Z,996.80
2023-03-30T05:21:14.093Z,996.83
2023-03-30T05:22:14.094Z,996.83
2023-03-30T05:23:14.067Z,996.82
2023-03-30T05:24:14.088Z,996.85
2023-03-30T05:25:14.052Z,996.86
2023-03-30T05:26:14.056Z,996.88
2023-03-30T05:27:14.027Z,996.89
2023-03-30T05:28:14.011Z,996.89
2023-03-30T05:29:14.021Z,996.88
2023-03-30T05:30:13.993Z,996.91
2023-03-30T05:31:14.035Z,996.90
2023-03-30T05:32:13.967Z,996.87
2023-03-30T05:33:13.947Z,996.87
2023-03-30T05:34:13.968Z,996.85
2023-03-30T05:35:13.923Z,996.87
2023-03-30T05:36:13.951Z,996.90
2023-03-30T05:37:13.900Z,996.91
2023-03-30T05:38:13.906Z,996.91
2023-03-30T05:39:13.914Z,996.92
2023-03-30T05:40:13.879Z,997.02
2023-03-30T05:41:13.860Z,997.04
2023-03-30T05:42:13.849Z,997.04
2023-03-30T05:43:13.832Z,997.06
2023-03-30T05:44:13.846Z,997.10
2023-03-30T05:45:13.812Z,997.08
2023-03-30T05:46:13.931Z,997.07
2023-03-30T05:47:13.797Z,997.04
2023-03-30T05:48:13.903Z,997.01
2023-03-30T05:49:13.788Z,997.02
2023-03-30T05:50:13.763Z,997.03
2023-03-30T05:51:13.742Z,996.99
2023-03-30T05:52:13.748Z,997.02
2023-03-30T05:53:13.746Z,996.98
2023-03-30T05:54:13.729Z,996.99
2023-03-30T05:55:13.716Z,997.01
2023-03-30T05:56:13.697Z,996.98
2023-03-30T05:57:13.739Z,996.95
2023-03-30T05:58:13.670Z,996.93
2023-03-30T05:59:13.859Z,996.94
2023-03-30T06:00:13.667Z,996.91
2023-03-30T06:01:13.626Z,997.00
2023-03-30T06:02:13.620Z,997.04
2023-03-30T06:03:13.689Z,997.08
2023-03-30T06:04:13.752Z,996.97
2023-03-30T06:05:13.609Z,996.98
2023-03-30T06:06:13.580Z,997.01
2023-03-30T06:07:13.577Z,996.99
2023-03-30T06:08:13.607Z,997.00
2023-03-30T06:09:13.547Z,997.02
2023-03-30T06:10:13.595Z,996.98
2023-03-30T06:11:13.514Z,996.99
2023-03-30T06:12:13.517Z,997.05
2023-03-30T06:13:13.485Z,997.10
2023-03-30T06:14:13.490Z,997.10
2023-03-30T06:15:13.491Z,997.11
2023-03-30T06:16:13.596Z,997.07
2023-03-30T06:17:13.446Z,997.13
2023-03-30T06:18:13.516Z,997.15
2023-03-30T06:19:13.417Z,997.17
2023-03-30T06:20:13.452Z,997.13
2023-03-30T06:21:13.402Z,997.11
2023-03-30T06:22:13.399Z,997.09
2023-03-30T06:23:13.371Z,997.05
2023-03-30T06:24:13.418Z,997.11
2023-03-30T06:25:13.407Z,997.07
2023-03-30T06:26:13.487Z,997.05
2023-03-30T06:27:13.525Z,997.01
2023-03-30T06:28:13.324Z,996.95
2023-03-30T06:29:13.341Z,996.95
2023-03-30T06:30:13.443Z,996.98
2023-03-30T06:31:13.319Z,997.00
2023-03-30T06:32:13.352Z,996.95
2023-03-30T06:33:13.318Z,996.92
2023-03-30T06:34:13.271Z,996.95
2023-03-30T06:35:13.263Z,997.00
2023-03-30T06:36:13.403Z,996.98
2023-03-30T06:37:13.216Z,996.96
2023-03-30T06:38:13.227Z,996.96
2023-03-30T06:39:13.225Z,996.95
2023-03-30T06:40:13.327Z,996.91
2023-03-30T06:41:13.195Z,996.95
2023-03-30T06:42:13.173Z,996.97
2023-03-30T06:43:13.148Z,997.00
2023-03-30T06:44:13.153Z,996.97
2023-03-30T06:45:13.150Z,997.02
2023-03-30T06:46:13.135Z,997.03
2023-03-30T06:47:13.132Z,996.99
2023-03-30T06:48:13.113Z,996.98
2023-03-30T06:49:13.121Z,996.98
2023-03-30T06:50:13.094Z,997.01
2023-03-30T06:51:13.050Z,997.01
2023-03-30T06:52:13.046Z,997.03
2023-03-30T06:53:13.035Z,996.99
2023-03-30T06:54:13.033Z,997.06
2023-03-30T06:55:13.044Z,996.98
2023-03-30T06:56:13.004Z,997.04
2023-03-30T06:57:13.025Z,997.06
2023-03-30T06:58:12.982Z,997.06
2023-03-30T06:59:12.985Z,997.03
2023-03-30T07:00:13.013Z,996.98
2023-03-30T07:01:13.038Z,997.04
2023-03-30T07:02:12.943Z,997.15
2023-03-30T07:03:12.952Z,997.14
2023-03-30T07:04:12.949Z,997.17
2023-03-30T07:05:12.923Z,997.15
2023-03-30T07:06:12.911Z,997.14
2023-03-30T07:07:12.876Z,997.16
2023-03-30T07:08:12.877Z,997.17
2023-03-30T07:09:12.866Z,997.19
2023-03-30T07:10:12.883Z,997.19
2023-03-30T07:11:12.844Z,997.25
2023-03-30T07:12:12.830Z,997.20
2023-03-30T07:13:12.814Z,997.27
2023-03-30T07:14:12.843Z,997.29
2023-03-30T07:15:12.818Z,997.24
2023-03-30T07:16:12.798Z,997.25
2023-03-30T07:17:12.827Z,997.29
2023-03-30T07:18:12.868Z,997.27
2023-03-30T07:19:12.758Z,997.32
2023-03-30T07:20:12.768Z,997.30
2023-03-30T07:21:12.727Z,997.31
2023-03-30T07:22:12.721Z,997.33
2023-03-30T07:23:12.713Z,997.38
2023-03-30T07:24:12.979Z,997.40
2023-03-30T07:25:12.706Z,997.42
2023-03-30T07:26:12.690Z,997.39
2023-03-30T07:27:12.666Z,997.39
2023-03-30T07:28:12.655Z,997.46
2023-03-30T07:29:12.638Z,997.49
2023-03-30T07:30:21.070Z,997.37
2023-03-30T07:31:12.711Z,997.50
2023-03-30T07:32:12.694Z,997.44
2023-03-30T07:33:12.605Z,997.45
2023-03-30T07:34:12.591Z,997.48
2023-03-30T07:35:12.591Z,997.48
2023-03-30T07:36:12.603Z,997.47
2023-03-30T07:37:12.566Z,997.46
2023-03-30T07:38:12.541Z,997.51
2023-03-30T07:39:12.530Z,997.52
2023-03-30T07:40:12.722Z,997.49
2023-03-30T07:41:12.528Z,997.53
2023-03-30T07:42:12.497Z,997.47
2023-03-30T07:43:12.515Z,997.50
2023-03-30T07:44:12.492Z,997.45
2023-03-30T07:45:14.869Z,997.43
2023-03-30T07:46:12.531Z,997.44
2023-03-30T07:47:12.440Z,997.48
2023-03-30T07:48:12.473Z,997.46
2023-03-30T07:49:12.408Z,997.46
2023-03-30T07:50:12.433Z,997.51
2023-03-30T07:51:12.442Z,997.51
2023-03-30T07:52:12.381Z,997.47
2023-03-30T07:53:12.382Z,997.47
2023-03-30T07:54:12.361Z,997.54
2023-03-30T07:55:12.472Z,997.53
2023-03-30T07:56:12.365Z,997.56
2023-03-30T07:57:12.437Z,997.58
2023-03-30T07:58:12.319Z,997.56
2023-03-30T07:59:12.334Z,997.59
2023-03-30T08:00:12.320Z,997.57
2023-03-30T08:01:12.285Z,997.57
2023-03-30T08:02:12.272Z,997.62
2023-03-30T08:03:12.450Z,997.64
2023-03-30T08:04:12.299Z,997.62
2023-03-30T08:05:12.422Z,997.69
2023-03-30T08:06:12.231Z,997.65
2023-03-30T08:07:12.227Z,997.69
2023-03-30T08:08:12.216Z,997.71
2023-03-30T08:09:12.193Z,997.72
2023-03-30T08:10:12.207Z,997.72
2023-03-30T08:11:12.172Z,997.74
2023-03-30T08:12:12.166Z,997.73
2023-03-30T08:13:12.149Z,997.72
2023-03-30T08:14:12.145Z,997.72
2023-03-30T08:15:12.165Z,997.72
2023-03-30T08:16:12.205Z,997.72
2023-03-30T08:17:12.187Z,997.70
2023-03-30T08:18:12.113Z,997.73
2023-03-30T08:19:12.085Z,997.84
2023-03-30T08:20:12.102Z,997.95
2023-03-30T08:21:12.081Z,998.00
2023-03-30T08:22:12.047Z,998.06
2023-03-30T08:23:12.039Z,998.07
2023-03-30T08:24:12.028Z,997.99
2023-03-30T08:25:12.050Z,998.04
2023-03-30T08:26:12.010Z,997.96
2023-03-30T08:27:12.060Z,998.04
2023-03-30T08:28:11.988Z,998.01
2023-03-30T08:29:11.964Z,998.06
2023-03-30T08:30:11.985Z,998.13
2023-03-30T08:31:11.999Z,998.08
2023-03-30T08:32:11.937Z,998.23
2023-03-30T08:33:11.940Z,998.09
2023-03-30T08:34:11.919Z,998.12
2023-03-30T08:35:11.936Z,998.19
2023-03-30T08:36:11.894Z,998.17
2023-03-30T08:37:11.870Z,998.14
2023-03-30T08:38:11.865Z,998.12
2023-03-30T08:39:11.851Z,998.16
2023-03-30T08:40:11.876Z,998.17
2023-03-30T08:41:11.823Z,998.09
2023-03-30T08:42:11.839Z,998.14
2023-03-30T08:43:11.803Z,998.19
2023-03-30T08:44:11.794Z,998.15
2023-03-30T08:45:11.808Z,998.14
2023-03-30T08:46:11.864Z,998.26
2023-03-30T08:47:11.763Z,998.14
2023-03-30T08:48:11.805Z,998.14
2023-03-30T08:49:11.739Z,998.15
2023-03-30T08:50:11.775Z,998.09
2023-03-30T08:51:11.717Z,998.08
2023-03-30T08:52:11.744Z,998.06
2023-03-30T08:53:11.689Z,998.05
2023-03-30T08:54:11.699Z,998.09
2023-03-30T08:55:11.684Z,998.06
2023-03-30T08:56:11.661Z,998.13
2023-03-30T08:57:11.759Z,998.11
2023-03-30T08:58:11.647Z,998.12
2023-03-30T08:59:11.623Z,998.13
2023-03-30T09:00:11.653Z,998.04
2023-03-30T09:01:11.653Z,998.12
2023-03-30T09:02:11.613Z,998.13
2023-03-30T09:03:11.652Z,998.14
2023-03-30T09:04:11.572Z,998.11
2023-03-30T09:05:11.587Z,998.06
2023-03-30T09:06:11.553Z,998.01
2023-03-30T09:07:11.555Z,997.98
2023-03-30T09:08:11.528Z,997.90
2023-03-30T09:09:11.517Z,997.95
2023-03-30T09:10:11.527Z,997.92
2023-03-30T09:11:11.542Z,997.94
2023-03-30T09:12:11.504Z,997.96
2023-03-30T09:13:11.462Z,997.94
2023-03-30T09:14:11.465Z,997.96
2023-03-30T09:15:11.462Z,997.93
2023-03-30T09:16:11.484Z,997.89
2023-03-30T09:17:11.415Z,997.84
2023-03-30T09:18:11.456Z,997.90
2023-03-30T09:19:11.396Z,997.96
2023-03-30T09:20:11.429Z,998.03
2023-03-30T09:21:11.372Z,997.97
2023-03-30T09:22:11.406Z,998.06
2023-03-30T09:23:11.352Z,998.01
2023-03-30T09:24:11.345Z,998.05
2023-03-30T09:25:11.344Z,998.11
2023-03-30T09:26:11.330Z,998.09
2023-03-30T09:27:11.305Z,998.09
2023-03-30T09:28:11.311Z,998.08
2023-03-30T09:29:11.283Z,998.09
2023-03-30T09:30:11.292Z,998.09
2023-03-30T09:31:11.279Z,998.09
2023-03-30T09:32:11.364Z,998.10
2023-03-30T09:33:11.298Z,998.12
2023-03-30T09:34:13.642Z,998.11
2023-03-30T09:35:11.235Z,998.11
2023-03-30T09:36:11.223Z,998.14
2023-03-30T09:37:11.206Z,998.14
2023-03-30T09:38:11.176Z,998.13
2023-03-30T09:39:11.176Z,998.14
2023-03-30T09:40:11.176Z,998.14
2023-03-30T09:41:11.158Z,998.27
2023-03-30T09:42:11.227Z,998.17
2023-03-30T09:43:11.145Z,998.16
2023-03-30T09:44:11.121Z,998.23
2023-03-30T09:45:11.133Z,998.19
2023-03-30T09:46:11.112Z,998.20
2023-03-30T09:47:11.079Z,998.17
2023-03-30T09:48:11.092Z,998.21
2023-03-30T09:49:11.062Z,998.18
2023-03-30T09:50:11.056Z,998.27
2023-03-30T09:51:11.033Z,998.23
2023-03-30T09:52:11.052Z,998.22
2023-03-30T09:53:11.027Z,998.28
2023-03-30T09:54:11.012Z,998.23
2023-03-30T09:55:11.015Z,998.31
2023-03-30T09:56:10.980Z,998.36
2023-03-30T09:57:10.983Z,998.28
2023-03-30T09:58:10.948Z,998.27
2023-03-30T09:59:10.942Z,998.26
2023-03-30T10:00:10.954Z,998.31
2023-03-30T10:01:10.976Z,998.38
2023-03-30T10:02:10.920Z,998.33
2023-03-30T10:03:10.938Z,998.33
2023-03-30T10:04:11.135Z,998.39
2023-03-30T10:05:10.896Z,998.33
2023-03-30T10:06:10.878Z,998.40
2023-03-30T10:08:10.844Z,998.32
2023-03-30T10:09:10.836Z,998.26
2023-03-30T10:10:10.832Z,998.39
2023-03-30T10:11:10.809Z,998.34
2023-03-30T10:12:10.794Z,998.42
2023-03-30T10:13:10.781Z,998.37
2023-03-30T10:14:10.769Z,998.36
2023-03-30T10:15:10.791Z,998.39
2023-03-30T10:16:10.810Z,998.35
2023-03-30T10:17:10.749Z,998.32
2023-03-30T10:18:10.749Z,998.29
2023-03-30T10:19:10.711Z,998.42
2023-03-30T10:20:13.894Z,998.35
2023-03-30T10:21:10.693Z,998.37
2023-03-30T10:22:10.682Z,998.37
2023-03-30T10:23:10.682Z,998.37
2023-03-30T10:24:10.658Z,998.42
2023-03-30T10:25:10.667Z,998.41
2023-03-30T10:26:10.633Z,998.45
2023-03-30T10:27:10.625Z,998.50
2023-03-30T10:28:10.609Z,998.55
2023-03-30T10:29:10.602Z,998.54
2023-03-30T10:30:10.606Z,998.62
2023-03-30T10:31:10.649Z,998.53
2023-03-30T10:32:10.571Z,998.52
2023-03-30T10:33:10.599Z,998.62
2023-03-30T10:34:10.552Z,998.52
2023-03-30T10:35:10.566Z,998.53
2023-03-30T10:36:10.543Z,998.59
2023-03-30T10:37:10.517Z,998.51
2023-03-30T10:38:10.579Z,998.46
2023-03-30T10:39:10.492Z,998.50
2023-03-30T10:40:10.531Z,998.50
2023-03-30T10:41:10.485Z,998.48
2023-03-30T10:42:10.477Z,998.42
2023-03-30T10:43:10.443Z,998.41
2023-03-30T10:44:10.427Z,998.43
2023-03-30T10:45:10.461Z,998.40
2023-03-30T10:46:18.946Z,998.48
2023-03-30T10:47:10.439Z,998.40
2023-03-30T10:48:10.395Z,998.40
2023-03-30T10:49:10.385Z,998.44
2023-03-30T10:50:10.389Z,998.43
2023-03-30T10:51:10.362Z,998.49
2023-03-30T10:52:10.339Z,998.43
2023-03-30T10:53:10.339Z,998.45
2023-03-30T10:54:10.324Z,998.47
2023-03-30T10:55:10.331Z,998.52
2023-03-30T10:56:10.297Z,998.48
2023-03-30T10:57:10.329Z,998.51
2023-03-30T10:58:10.271Z,998.56
2023-03-30T10:59:10.270Z,998.39
2023-03-30T11:00:10.279Z,998.52
2023-03-30T11:01:10.277Z,998.48
2023-03-30T11:02:10.225Z,998.50
2023-03-30T11:03:10.293Z,998.48
2023-03-30T11:04:22.677Z,998.47
2023-03-30T11:05:10.220Z,998.37
2023-03-30T11:06:10.178Z,998.40
2023-03-30T11:07:10.181Z,998.39
2023-03-30T11:08:10.156Z,998.46
2023-03-30T11:09:10.149Z,998.48
2023-03-30T11:10:10.158Z,998.43
2023-03-30T11:11:10.126Z,998.47
2023-03-30T11:12:10.118Z,998.47
2023-03-30T11:13:10.101Z,998.55
2023-03-30T11:14:10.092Z,998.51
2023-03-30T11:15:10.113Z,998.51
2023-03-30T11:16:10.207Z,998.54
2023-03-30T11:17:10.095Z,998.54
2023-03-30T11:18:10.078Z,998.55
2023-03-30T11:19:10.089Z,998.52
2023-03-30T11:20:10.045Z,998.51
2023-03-30T11:21:10.010Z,998.56
2023-03-30T11:22:09.992Z,998.58
2023-03-30T11:23:10.002Z,998.50
2023-03-30T11:24:09.967Z,998.51
2023-03-30T11:25:09.978Z,998.42
2023-03-30T11:26:09.946Z,998.42
2023-03-30T11:27:09.946Z,998.45
2023-03-30T11:28:09.926Z,998.40
2023-03-30T11:29:09.952Z,998.52
2023-03-30T11:30:09.922Z,998.45
2023-03-30T11:31:09.889Z,998.45
2023-03-30T11:32:10.045Z,998.46
2023-03-30T11:33:09.940Z,998.45
2023-03-30T11:34:09.856Z,998.37
2023-03-30T11:35:09.869Z,998.37
2023-03-30T11:36:09.881Z,998.41
2023-03-30T11:37:09.837Z,998.40
2023-03-30T11:38:09.812Z,998.40
2023-03-30T11:39:18.457Z,998.46
2023-03-30T11:40:09.811Z,998.38
2023-03-30T11:41:09.777Z,998.31
2023-03-30T11:42:09.777Z,998.33
2023-03-30T11:43:09.753Z,998.45
2023-03-30T11:44:09.740Z,998.36
2023-03-30T11:45:09.753Z,998.37
2023-03-30T11:46:10.044Z,998.33
2023-03-30T11:47:09.754Z,998.35
2023-03-30T11:48:09.757Z,998.44
2023-03-30T11:49:09.696Z,998.39
2023-03-30T11:50:09.697Z,998.49
2023-03-30T11:51:09.663Z,998.42
2023-03-30T11:52:09.647Z,998.47
2023-03-30T11:53:09.644Z,998.50
2023-03-30T11:54:09.622Z,998.63
2023-03-30T11:55:09.642Z,998.66
2023-03-30T11:56:09.608Z,998.59
2023-03-30T11:57:09.650Z,998.54
2023-03-30T11:58:09.597Z,998.60
2023-03-30T11:59:09.579Z,998.51
2023-03-30T12:00:09.562Z,998.63
2023-03-30T12:01:09.577Z,998.72
2023-03-30T12:02:09.619Z,998.73
2023-03-30T12:03:09.671Z,998.71
2023-03-30T12:04:09.648Z,998.71
2023-03-30T12:05:09.526Z,998.75
2023-03-30T12:06:09.518Z,998.71
2023-03-30T12:07:09.486Z,998.74
2023-03-30T12:08:09.478Z,998.75
2023-03-30T12:09:09.462Z,998.70
2023-03-30T12:10:09.442Z,998.75
2023-03-30T12:11:09.456Z,998.81
2023-03-30T12:12:09.428Z,998.68
2023-03-30T12:13:09.417Z,998.70
2023-03-30T12:14:09.403Z,998.65
2023-03-30T12:15:09.409Z,998.67
2023-03-30T12:16:09.434Z,998.66
2023-03-30T12:17:09.375Z,998.63
2023-03-30T12:18:09.403Z,998.65
2023-03-30T12:19:09.364Z,998.59
2023-03-30T12:20:09.340Z,998.66
2023-03-30T12:21:09.349Z,998.66
2023-03-30T12:22:09.324Z,998.63
2023-03-30T12:23:09.307Z,998.59
2023-03-30T12:24:09.287Z,998.69
2023-03-30T12:25:09.280Z,998.65
2023-03-30T12:26:09.291Z,998.65
2023-03-30T12:27:11.131Z,998.65
2023-03-30T12:28:09.246Z,998.62
2023-03-30T12:30:09.240Z,998.71